Terminal Aerodrome Forecast
Issued by NWS

Home | Current Version | Previous Version | Text Only | Print | Product List | Glossary On
Versions: 1 2 3 4 5 6 7 8 9 10 11 12 13 14 15 16 17
000
FTUS44 KHGX 252320
TAFCXO
TAF
KCXO 252320Z 2600/2624 35008KT P6SM FEW060 SCT090 OVC110
     FM260300 34007KT P6SM VCSH FEW025 BKN050
     FM260800 33007KT P6SM BKN080
     FM262200 34006KT P6SM FEW250=

USA.gov is the U.S. government's official web portal to all federal, state and local government web resources and services.